Weather at Ilulissat Airport

Public forecast

Using degrees Celsius for public forecast. Weather courtesy of forecast.io.

Current aviation weather report (METAR) for Ilulissat Airport

Retrieved 2021/04/12 11:50 UTC (46 minutes ago):

BGJN 121150Z 12011KT 9999 SCT029 BKN041 03/M04 Q1028

Aviation forecast (TAF) for Ilulissat Airport

Forecast is more than 12 hours old.

Retrieved 2019/11/27 18:36 UTC (1 year ago):

TAF BGJN 271707Z 2718/2822 14005KT 9999 FEW030